الصفحة الرئيسية
METAR-TAF:

METAR-TAF

مطار :

مومباي, الهند

دائرة عرض: 19-05-53N, خط طول: 072-50-02E, ارتفاع: 4 متر

مراقبة الطقس الحالي

تاريخ ووقت الإصدار 5ساعات و 6 دقيقة قبل الساعة 12:30UTC
ريح 6 عقدة من الشمال الغربي
درجة الحرارة 29°درجة مئوية
الرطوبة 84%
ضغط 1005 hPa
الرؤية: 5000 متر
غيوم متفرقة على ارتفاع 2000 قدم
غيوم قليلة على ارتفاع 2500 قدم, مزن ركامية عمودية.
غيوم مفككة على ارتفاع 10000 قدم
العجاج

METAR: VAJJ 051230Z 31006KT 5000 HZ SCT020 FEW025TCU BKN100 29/26 Q1005 NOSIG

زمن: 23:06 (17:36 UTC)


TAF: مفقودة

أرصاد الطقس والتوقعات من أكثر من 4000 مطار (تقارير الطقس للمطار METAR والتنبؤ بالطقس بالمطارTAF).

المحطات المتاحة هي النقط الصفراء والحمراء على الخريطة.

حرك المؤشر فوق النقطة لمعرفة اسم المحطة.

ثم انقر لمعرفة أرصاد وتوقعات الطقس.

لتغيير الخارطة: اضغط على الأزرار الخضراء مع رمز الصليب الأسود للتكبير. على الزر الأخضر مع شرطة للتصغير، أو على الأسهم الخضراء للخرائط المجاورة.


METAR-TAF: